createdAt,value
2023-05-24T00:01:20.014Z,18.42
2023-05-24T00:03:48.489Z,18.00
2023-05-24T00:06:17.092Z,18.10
2023-05-24T00:08:45.498Z,17.35
2023-05-24T00:11:14.301Z,17.08
2023-05-24T00:13:42.740Z,16.23
2023-05-24T00:16:11.395Z,16.77
2023-05-24T00:18:40.117Z,16.52
2023-05-24T00:21:09.399Z,17.70
2023-05-24T00:23:38.705Z,17.40
2023-05-24T00:26:07.556Z,14.10
2023-05-24T00:28:36.867Z,12.93
2023-05-24T00:31:05.437Z,12.30
2023-05-24T00:33:37.404Z,12.45
2023-05-24T00:38:34.205Z,13.00
2023-05-24T00:41:02.649Z,12.52
2023-05-24T00:43:31.266Z,12.18
2023-05-24T00:46:22.147Z,12.40
2023-05-24T00:48:51.647Z,12.88
2023-05-24T00:51:20.395Z,14.63
2023-05-24T00:53:50.617Z,15.23
2023-05-24T00:56:19.431Z,16.85
2023-05-24T00:58:48.759Z,18.75
2023-05-24T01:01:18.214Z,18.88
2023-05-24T01:03:47.044Z,17.42
2023-05-24T01:06:18.084Z,15.35
2023-05-24T01:09:17.824Z,16.70
2023-05-24T01:12:09.799Z,16.90
2023-05-24T01:15:02.764Z,16.48
2023-05-24T01:17:54.319Z,16.13
2023-05-24T01:20:25.401Z,15.77
2023-05-24T01:23:18.481Z,17.27
2023-05-24T01:26:04.105Z,15.82
2023-05-24T01:28:35.010Z,17.05
2023-05-24T01:31:04.851Z,14.73
2023-05-24T01:33:43.442Z,15.63
2023-05-24T01:36:12.276Z,14.05
2023-05-24T01:38:41.690Z,13.35
2023-05-24T01:41:36.996Z,14.52
2023-05-24T01:44:10.827Z,13.95
2023-05-24T01:46:40.147Z,13.93
2023-05-24T01:49:18.459Z,14.43
2023-05-24T01:51:54.633Z,12.98
2023-05-24T01:54:27.208Z,12.35
2023-05-24T01:56:58.164Z,12.23
2023-05-24T01:59:29.592Z,13.80
2023-05-24T02:01:58.671Z,14.00
2023-05-24T02:04:27.592Z,13.60
2023-05-24T02:06:56.063Z,16.17
2023-05-24T02:09:24.470Z,16.08
2023-05-24T02:11:53.668Z,16.95
2023-05-24T02:14:22.349Z,16.20
2023-05-24T02:16:51.102Z,17.02
2023-05-24T02:19:20.588Z,14.93
2023-05-24T02:21:48.929Z,14.27
2023-05-24T02:24:17.618Z,13.30
2023-05-24T02:26:46.138Z,12.90
2023-05-24T02:29:14.606Z,14.55
2023-05-24T02:31:43.163Z,15.98
2023-05-24T02:34:11.349Z,14.80
2023-05-24T02:36:39.820Z,13.52
2023-05-24T02:39:08.197Z,14.80
2023-05-24T02:41:36.718Z,26.65
2023-05-24T02:44:05.091Z,27.98
2023-05-24T02:46:33.585Z,31.15
2023-05-24T02:49:02.147Z,32.58
2023-05-24T02:51:30.561Z,28.38
2023-05-24T02:53:59.120Z,26.60
2023-05-24T02:56:27.462Z,28.23
2023-05-24T02:58:56.981Z,25.55
2023-05-24T03:01:25.575Z,24.42
2023-05-24T03:03:57.661Z,25.60
2023-05-24T03:06:27.721Z,23.13
2023-05-24T03:08:57.141Z,22.33
2023-05-24T03:11:26.833Z,22.48
2023-05-24T03:13:57.593Z,20.42
2023-05-24T03:16:26.075Z,19.17
2023-05-24T03:18:54.457Z,16.02
2023-05-24T03:21:23.096Z,14.45
2023-05-24T03:23:51.678Z,13.43
2023-05-24T03:26:20.162Z,11.95
2023-05-24T03:28:48.570Z,11.32
2023-05-24T03:31:16.911Z,10.40
2023-05-24T03:33:45.605Z,13.57
2023-05-24T03:36:14.266Z,9.38
2023-05-24T03:38:42.603Z,10.32
2023-05-24T03:41:11.068Z,13.25
2023-05-24T03:43:39.746Z,12.50
2023-05-24T03:46:13.535Z,11.32
2023-05-24T03:48:43.358Z,10.35
2023-05-24T03:51:11.771Z,11.15
2023-05-24T03:53:40.258Z,10.20
2023-05-24T03:56:08.503Z,9.90
2023-05-24T03:58:38.780Z,12.10
2023-05-24T04:01:07.486Z,11.98
2023-05-24T04:03:36.209Z,9.80
2023-05-24T04:06:05.766Z,11.30
2023-05-24T04:08:34.251Z,11.18
2023-05-24T04:11:02.758Z,11.88
2023-05-24T04:13:31.341Z,13.45
2023-05-24T04:15:59.844Z,11.10
2023-05-24T04:18:28.326Z,9.90
2023-05-24T04:20:56.841Z,11.60
2023-05-24T04:23:25.320Z,10.35
2023-05-24T04:25:53.744Z,9.75
2023-05-24T04:28:22.228Z,8.90
2023-05-24T04:30:51.737Z,8.60
2023-05-24T04:33:20.325Z,8.88
2023-05-24T04:35:48.754Z,7.45
2023-05-24T04:38:17.096Z,7.80
2023-05-24T04:40:45.708Z,8.23
2023-05-24T04:43:14.134Z,7.38
2023-05-24T04:45:42.529Z,8.27
2023-05-24T04:48:10.917Z,8.82
2023-05-24T04:50:39.447Z,6.90
2023-05-24T04:53:08.032Z,6.25
2023-05-24T04:55:36.435Z,8.23
2023-05-24T04:58:04.962Z,7.72
2023-05-24T05:00:33.377Z,7.82
2023-05-24T05:03:01.864Z,7.32
2023-05-24T05:05:30.267Z,6.00
2023-05-24T05:07:58.871Z,8.13
2023-05-24T05:10:27.432Z,6.72
2023-05-24T05:12:55.990Z,7.53
2023-05-24T05:15:25.299Z,7.28
2023-05-24T05:17:53.675Z,7.75
2023-05-24T05:20:23.546Z,8.30
2023-05-24T05:22:52.268Z,6.63
2023-05-24T05:25:21.069Z,6.03
2023-05-24T05:27:49.471Z,7.40
2023-05-24T05:30:18.582Z,7.10
2023-05-24T05:32:47.319Z,7.13
2023-05-24T05:35:15.757Z,9.10
2023-05-24T05:37:44.024Z,7.72
2023-05-24T05:40:12.974Z,7.53
2023-05-24T05:42:41.376Z,6.60
2023-05-24T05:45:09.964Z,7.25
2023-05-24T05:47:38.422Z,8.40
2023-05-24T05:50:07.723Z,7.55
2023-05-24T05:52:37.133Z,7.65
2023-05-24T05:55:06.137Z,8.52
2023-05-24T05:57:34.623Z,10.15
2023-05-24T06:00:03.339Z,9.13
2023-05-24T06:02:40.216Z,10.13
2023-05-24T06:05:09.875Z,9.52
2023-05-24T06:07:38.268Z,7.10
2023-05-24T06:10:07.398Z,9.30
2023-05-24T06:12:35.723Z,8.18
2023-05-24T06:15:04.272Z,11.27
2023-05-24T06:17:32.559Z,11.55
2023-05-24T06:20:01.344Z,11.30
2023-05-24T06:22:29.829Z,11.50
2023-05-24T06:24:58.296Z,12.68
2023-05-24T06:27:26.647Z,12.27
2023-05-24T06:29:55.076Z,13.25
2023-05-24T06:32:23.576Z,12.82
2023-05-24T06:34:52.092Z,12.23
2023-05-24T06:37:20.378Z,11.70
2023-05-24T06:39:48.807Z,11.20
2023-05-24T06:42:17.234Z,12.68
2023-05-24T06:44:47.647Z,12.63
2023-05-24T06:47:16.545Z,11.80
2023-05-24T06:49:45.263Z,12.10
2023-05-24T06:52:13.940Z,11.68
2023-05-24T06:54:42.739Z,10.93
2023-05-24T06:57:12.431Z,10.50
2023-05-24T06:59:41.417Z,9.93
2023-05-24T07:02:10.432Z,10.10
2023-05-24T07:04:39.319Z,9.68
2023-05-24T07:07:10.658Z,9.68
2023-05-24T07:09:40.836Z,12.77
2023-05-24T07:12:10.274Z,14.07
2023-05-24T07:14:39.383Z,14.68
2023-05-24T07:17:08.332Z,15.75
2023-05-24T07:19:36.878Z,15.80
2023-05-24T07:22:05.291Z,13.18
2023-05-24T07:24:33.744Z,11.45
2023-05-24T07:27:02.067Z,10.00
2023-05-24T07:29:30.642Z,8.77
2023-05-24T07:36:03.221Z,12.05
2023-05-24T07:38:31.942Z,13.23
2023-05-24T07:41:01.890Z,11.60
2023-05-24T07:43:30.679Z,11.55
2023-05-24T07:46:00.344Z,10.10
2023-05-24T07:48:28.991Z,14.15
2023-05-24T07:50:57.487Z,12.70
2023-05-24T07:53:25.932Z,11.77
2023-05-24T07:55:57.074Z,12.43
2023-05-24T07:58:25.506Z,11.90
2023-05-24T08:00:53.803Z,11.77
2023-05-24T08:03:22.463Z,11.68
2023-05-24T08:05:51.234Z,11.13
2023-05-24T08:08:19.511Z,11.65
2023-05-24T08:10:48.121Z,9.80
2023-05-24T08:13:16.582Z,11.07
2023-05-24T08:15:45.202Z,8.52
2023-05-24T08:18:14.785Z,9.85
2023-05-24T08:20:43.416Z,8.77
2023-05-24T08:23:11.923Z,8.63
2023-05-24T08:25:40.826Z,8.10
2023-05-24T08:28:09.483Z,9.50
2023-05-24T08:30:38.122Z,8.90
2023-05-24T08:33:06.584Z,8.90
2023-05-24T08:35:35.209Z,7.60
2023-05-24T08:38:03.564Z,7.28
2023-05-24T08:40:33.683Z,7.75
2023-05-24T08:43:03.324Z,6.82
2023-05-24T08:45:35.373Z,7.18
2023-05-24T08:48:07.050Z,7.00
2023-05-24T08:50:36.436Z,7.53
2023-05-24T08:53:08.938Z,6.70
2023-05-24T08:55:38.813Z,5.80
2023-05-24T08:58:07.889Z,6.40
2023-05-24T09:00:36.358Z,6.07
2023-05-24T09:03:07.259Z,6.50
2023-05-24T09:05:36.233Z,5.95
2023-05-24T09:08:05.524Z,5.97
2023-05-24T09:10:54.103Z,6.15
2023-05-24T09:13:24.793Z,7.65
2023-05-24T09:15:54.629Z,7.43
2023-05-24T09:18:24.378Z,6.95
2023-05-24T09:20:53.230Z,7.53
2023-05-24T09:23:23.504Z,7.13
2023-05-24T09:25:51.990Z,6.07
2023-05-24T09:28:21.005Z,5.88
2023-05-24T09:31:06.315Z,5.32
2023-05-24T09:33:36.956Z,5.05
2023-05-24T09:36:06.519Z,4.78
2023-05-24T09:38:35.018Z,4.35
2023-05-24T09:41:08.237Z,4.68
2023-05-24T09:43:49.405Z,5.18
2023-05-24T09:46:19.575Z,5.13
2023-05-24T09:49:12.857Z,6.10
2023-05-24T09:51:41.296Z,11.27
2023-05-24T09:54:13.292Z,7.50
2023-05-24T09:59:12.077Z,4.60
2023-05-24T10:01:40.715Z,6.88
2023-05-24T10:04:15.516Z,4.55
2023-05-24T10:06:44.922Z,5.00
2023-05-24T10:09:13.678Z,4.53
2023-05-24T10:11:43.050Z,3.42
2023-05-24T10:14:13.558Z,3.53
2023-05-24T10:16:46.814Z,4.35
2023-05-24T10:19:16.629Z,4.32
2023-05-24T10:21:46.173Z,4.55
2023-05-24T10:24:18.135Z,4.00
2023-05-24T10:29:28.820Z,4.25
2023-05-24T10:31:58.701Z,3.97
2023-05-24T10:34:28.324Z,4.18
2023-05-24T10:36:58.405Z,4.25
2023-05-24T10:39:27.288Z,4.13
2023-05-24T10:41:58.697Z,4.53
2023-05-24T10:44:30.545Z,4.35
2023-05-24T10:47:26.895Z,3.78
2023-05-24T10:49:58.799Z,4.22
2023-05-24T10:52:37.392Z,3.97
2023-05-24T10:55:08.696Z,3.63
2023-05-24T10:57:38.248Z,4.10
2023-05-24T11:00:33.949Z,3.35
2023-05-24T11:03:07.361Z,5.40
2023-05-24T11:05:48.829Z,5.70
2023-05-24T11:08:41.737Z,5.85
2023-05-24T11:13:46.977Z,4.03
2023-05-24T11:16:45.672Z,3.90
2023-05-24T11:19:22.071Z,10.65
2023-05-24T11:21:52.944Z,4.25
2023-05-24T11:24:22.599Z,3.65
2023-05-24T11:26:52.029Z,3.42
2023-05-24T11:29:20.762Z,4.22
2023-05-24T11:31:57.894Z,4.80
2023-05-24T11:34:26.791Z,9.30
2023-05-24T11:36:55.699Z,8.07
2023-05-24T11:39:24.134Z,5.78
2023-05-24T11:41:55.197Z,5.45
2023-05-24T11:44:23.731Z,4.80
2023-05-24T11:46:58.967Z,6.10
2023-05-24T11:49:27.930Z,5.57
2023-05-24T11:51:59.044Z,4.80
2023-05-24T11:54:30.453Z,5.05
2023-05-24T11:56:59.738Z,5.22
2023-05-24T11:59:29.658Z,4.30
2023-05-24T12:02:08.169Z,5.55
2023-05-24T12:04:37.780Z,3.78
2023-05-24T12:07:11.208Z,3.50
2023-05-24T12:09:39.734Z,3.90
2023-05-24T12:12:08.411Z,3.40
2023-05-24T12:14:57.174Z,3.63
2023-05-24T12:17:26.079Z,4.63
2023-05-24T12:19:54.597Z,2.88
2023-05-24T12:22:29.090Z,4.05
2023-05-24T12:25:00.579Z,4.88
2023-05-24T12:27:29.547Z,4.38
2023-05-24T12:30:06.505Z,3.40
2023-05-24T12:32:35.194Z,3.85
2023-05-24T12:35:05.523Z,8.27
2023-05-24T12:37:34.813Z,7.03
2023-05-24T12:40:03.608Z,6.00
2023-05-24T12:42:32.985Z,5.45
2023-05-24T12:45:01.777Z,5.45
2023-05-24T12:47:30.551Z,6.13
2023-05-24T12:49:59.414Z,5.32
2023-05-24T12:52:28.200Z,6.90
2023-05-24T12:54:56.642Z,6.80
2023-05-24T12:57:25.054Z,6.10
2023-05-24T12:59:53.754Z,6.25
2023-05-24T13:02:24.608Z,4.15
2023-05-24T13:04:56.261Z,6.93
2023-05-24T13:07:25.196Z,5.22
2023-05-24T13:09:53.574Z,5.20
2023-05-24T13:12:22.508Z,7.28
2023-05-24T13:14:52.919Z,6.45
2023-05-24T13:17:22.286Z,5.78
2023-05-24T13:19:50.784Z,5.15
2023-05-24T13:22:19.223Z,4.78
2023-05-24T13:24:47.783Z,4.97
2023-05-24T13:27:16.127Z,5.05
2023-05-24T13:29:59.167Z,4.25
2023-05-24T13:32:29.244Z,3.88
2023-05-24T13:34:58.310Z,3.60
2023-05-24T13:37:26.997Z,3.55
2023-05-24T13:39:55.367Z,3.85
2023-05-24T13:42:23.930Z,5.55
2023-05-24T13:44:52.270Z,4.85
2023-05-24T13:47:31.227Z,5.20
2023-05-24T13:50:08.147Z,4.82
2023-05-24T13:52:36.640Z,5.15
2023-05-24T13:55:05.736Z,7.60
2023-05-24T14:00:08.765Z,10.70
2023-05-24T14:02:38.198Z,10.50
2023-05-24T14:05:24.769Z,3.42
2023-05-24T14:07:56.318Z,15.65
2023-05-24T14:10:25.007Z,9.55
2023-05-24T14:13:07.787Z,10.07
2023-05-24T14:15:42.862Z,4.78
2023-05-24T14:18:11.402Z,10.43
2023-05-24T14:20:40.660Z,10.77
2023-05-24T14:23:10.444Z,4.70
2023-05-24T14:25:38.905Z,5.60
2023-05-24T14:28:07.583Z,7.70
2023-05-24T14:30:36.062Z,4.43
2023-05-24T14:33:04.777Z,3.85
2023-05-24T14:35:33.976Z,5.43
2023-05-24T14:38:02.430Z,4.10
2023-05-24T14:40:30.759Z,4.78
2023-05-24T14:42:59.262Z,4.88
2023-05-24T14:45:27.834Z,4.88
2023-05-24T14:47:56.487Z,5.75
2023-05-24T14:50:27.936Z,5.50
2023-05-24T14:52:56.560Z,5.35
2023-05-24T14:55:25.044Z,3.30
2023-05-24T14:57:53.498Z,3.25
2023-05-24T15:00:23.280Z,4.75
2023-05-24T15:02:53.333Z,3.00
2023-05-24T15:05:23.417Z,3.50
2023-05-24T15:07:51.808Z,3.90
2023-05-24T15:10:20.263Z,2.80
2023-05-24T15:12:48.886Z,4.10
2023-05-24T15:15:17.553Z,3.35
2023-05-24T15:17:46.796Z,2.97
2023-05-24T15:20:15.573Z,4.20
2023-05-24T15:22:47.017Z,8.57
2023-05-24T15:25:15.511Z,8.80
2023-05-24T15:27:44.020Z,11.95
2023-05-24T15:30:20.810Z,5.30
2023-05-24T15:32:49.358Z,6.03
2023-05-24T15:35:18.570Z,7.20
2023-05-24T15:37:47.143Z,8.98
2023-05-24T15:40:15.813Z,6.43
2023-05-24T15:42:44.286Z,6.60
2023-05-24T15:45:13.006Z,7.53
2023-05-24T15:47:41.879Z,7.20
2023-05-24T15:50:10.941Z,6.32
2023-05-24T15:52:42.345Z,5.97
2023-05-24T15:55:11.244Z,4.65
2023-05-24T15:57:39.823Z,5.78
2023-05-24T16:00:09.094Z,6.68
2023-05-24T16:02:43.276Z,10.90
2023-05-24T16:05:12.080Z,12.13
2023-05-24T16:07:40.464Z,8.23
2023-05-24T16:10:09.236Z,7.22
2023-05-24T16:12:37.668Z,7.55
2023-05-24T16:15:06.728Z,3.72
2023-05-24T16:17:35.273Z,2.70
2023-05-24T16:20:04.138Z,5.22
2023-05-24T16:22:35.247Z,5.55
2023-05-24T16:25:03.840Z,4.35
2023-05-24T16:27:32.456Z,5.38
2023-05-24T16:30:00.899Z,3.65
2023-05-24T16:32:29.470Z,2.80
2023-05-24T16:34:58.249Z,3.22
2023-05-24T16:37:26.714Z,3.17
2023-05-24T16:39:55.347Z,3.40
2023-05-24T16:42:23.865Z,4.47
2023-05-24T16:44:52.128Z,3.88
2023-05-24T16:47:20.900Z,4.13
2023-05-24T16:49:50.508Z,4.38
2023-05-24T16:52:19.523Z,3.00
2023-05-24T16:54:47.773Z,4.35
2023-05-24T16:57:16.418Z,5.43
2023-05-24T16:59:44.879Z,4.97
2023-05-24T17:02:13.311Z,3.30
2023-05-24T17:04:41.738Z,3.38
2023-05-24T17:07:10.122Z,3.38
2023-05-24T17:09:38.652Z,3.97
2023-05-24T17:12:07.177Z,4.03
2023-05-24T17:14:35.574Z,4.50
2023-05-24T17:17:05.289Z,6.13
2023-05-24T17:19:35.424Z,7.00
2023-05-24T17:22:06.284Z,6.70
2023-05-24T17:24:37.863Z,16.75
2023-05-24T17:27:06.542Z,8.55
2023-05-24T17:29:35.274Z,5.88
2023-05-24T17:32:04.319Z,6.22
2023-05-24T17:34:33.202Z,5.85
2023-05-24T17:37:01.819Z,6.63
2023-05-24T17:39:30.152Z,5.05
2023-05-24T17:41:58.736Z,4.63
2023-05-24T17:44:27.193Z,4.75
2023-05-24T17:46:55.753Z,6.15
2023-05-24T17:49:33.205Z,6.43
2023-05-24T17:52:01.904Z,6.07
2023-05-24T17:54:30.303Z,5.53
2023-05-24T17:56:58.712Z,6.60
2023-05-24T17:59:27.393Z,6.57
2023-05-24T18:01:55.884Z,7.10
2023-05-24T18:04:24.378Z,6.70
2023-05-24T18:06:52.796Z,4.28
2023-05-24T18:09:21.940Z,5.43
2023-05-24T18:11:50.160Z,6.10
2023-05-24T18:14:21.744Z,7.63
2023-05-24T18:16:50.329Z,9.02
2023-05-24T18:19:18.882Z,7.35
2023-05-24T18:21:47.191Z,8.93
2023-05-24T18:24:15.938Z,6.70
2023-05-24T18:26:47.021Z,7.47
2023-05-24T18:29:15.749Z,5.78
2023-05-24T18:31:47.381Z,4.60
2023-05-24T18:34:16.335Z,7.45
2023-05-24T18:36:44.996Z,6.90
2023-05-24T18:39:13.655Z,7.03
2023-05-24T18:41:42.188Z,9.75
2023-05-24T18:44:10.832Z,7.13
2023-05-24T18:46:39.307Z,6.47
2023-05-24T18:49:07.960Z,7.28
2023-05-24T18:51:36.322Z,7.63
2023-05-24T18:54:05.240Z,9.15
2023-05-24T18:56:33.570Z,9.80
2023-05-24T18:59:03.573Z,9.93
2023-05-24T19:01:32.858Z,9.48
2023-05-24T19:04:01.640Z,12.85
2023-05-24T19:06:30.212Z,11.90
2023-05-24T19:08:58.928Z,13.15
2023-05-24T19:11:28.346Z,11.13
2023-05-24T19:13:56.800Z,9.75
2023-05-24T19:16:25.693Z,8.48
2023-05-24T19:18:54.154Z,9.25
2023-05-24T19:21:22.771Z,7.38
2023-05-24T19:23:51.185Z,8.00
2023-05-24T19:26:19.908Z,7.70
2023-05-24T19:28:57.791Z,8.90
2023-05-24T19:31:27.195Z,8.45
2023-05-24T19:34:00.561Z,10.65
2023-05-24T19:36:30.573Z,9.20
2023-05-24T19:38:59.358Z,10.98
2023-05-24T19:41:27.831Z,9.52
2023-05-24T19:43:56.962Z,10.88
2023-05-24T19:46:26.550Z,11.85
2023-05-24T19:48:55.072Z,12.23
2023-05-24T19:51:26.445Z,12.18
2023-05-24T19:53:54.877Z,12.82
2023-05-24T19:56:23.579Z,13.27
2023-05-24T19:58:52.234Z,13.27
2023-05-24T20:01:20.657Z,14.80
2023-05-24T20:03:49.491Z,14.73
2023-05-24T20:06:18.594Z,14.93
2023-05-24T20:08:47.444Z,13.70
2023-05-24T20:11:15.836Z,9.90
2023-05-24T20:13:44.369Z,9.80
2023-05-24T20:16:13.135Z,11.05
2023-05-24T20:18:41.500Z,12.73
2023-05-24T20:21:10.201Z,13.77
2023-05-24T20:23:51.119Z,13.20
2023-05-24T20:26:19.854Z,13.70
2023-05-24T20:28:48.364Z,11.60
2023-05-24T20:31:17.508Z,11.82
2023-05-24T20:33:46.229Z,9.68
2023-05-24T20:36:14.551Z,11.38
2023-05-24T20:38:43.175Z,12.02
2023-05-24T20:41:12.001Z,10.60
2023-05-24T20:43:40.490Z,9.98
2023-05-24T20:46:09.279Z,9.90
2023-05-24T20:48:37.772Z,8.35
2023-05-24T20:51:07.244Z,12.75
2023-05-24T20:53:35.754Z,12.20
2023-05-24T20:56:04.286Z,13.70
2023-05-24T20:58:32.793Z,14.32
2023-05-24T21:01:01.092Z,10.45
2023-05-24T21:03:29.739Z,21.50
2023-05-24T21:05:58.293Z,23.45
2023-05-24T21:08:26.699Z,26.83
2023-05-24T21:10:55.134Z,45.65
2023-05-24T21:13:23.693Z,38.83
2023-05-24T21:15:52.603Z,22.77
2023-05-24T21:18:20.923Z,11.18
2023-05-24T21:20:49.348Z,5.07
2023-05-24T21:23:18.170Z,12.50
2023-05-24T21:25:46.540Z,23.08
2023-05-24T21:28:15.093Z,22.27
2023-05-24T21:30:43.764Z,31.20
2023-05-24T21:33:12.285Z,44.00
2023-05-24T21:35:40.902Z,34.53
2023-05-24T21:38:09.737Z,17.48
2023-05-24T21:40:44.282Z,8.73
2023-05-24T21:43:12.889Z,7.50
2023-05-24T21:45:44.304Z,6.55
2023-05-24T21:48:13.104Z,6.75
2023-05-24T21:50:41.459Z,7.32
2023-05-24T21:53:10.065Z,7.78
2023-05-24T21:55:38.484Z,7.80
2023-05-24T21:58:07.248Z,8.55
2023-05-24T22:00:35.641Z,8.65
2023-05-24T22:03:04.166Z,8.95
2023-05-24T22:05:32.904Z,8.57
2023-05-24T22:08:01.372Z,8.88
2023-05-24T22:10:29.798Z,16.17
2023-05-24T22:12:58.147Z,22.17
2023-05-24T22:15:26.609Z,16.88
2023-05-24T22:17:55.325Z,13.98
2023-05-24T22:20:23.714Z,29.33
2023-05-24T22:22:52.384Z,26.00
2023-05-24T22:25:21.103Z,26.40
2023-05-24T22:27:50.062Z,23.70
2023-05-24T22:30:18.694Z,22.88
2023-05-24T22:32:47.397Z,26.80
2023-05-24T22:35:16.110Z,29.13
2023-05-24T22:37:44.546Z,33.67
2023-05-24T22:40:13.693Z,15.00
2023-05-24T22:42:42.217Z,14.45
2023-05-24T22:45:11.205Z,8.57
2023-05-24T22:47:42.493Z,12.05
2023-05-24T22:50:11.125Z,25.05
2023-05-24T22:52:39.561Z,26.90
2023-05-24T22:55:08.082Z,17.08
2023-05-24T22:57:36.598Z,12.00
2023-05-24T23:00:05.789Z,9.95
2023-05-24T23:02:34.108Z,9.20
2023-05-24T23:05:02.844Z,9.50
2023-05-24T23:07:31.302Z,10.82
2023-05-24T23:09:59.669Z,9.25
2023-05-24T23:12:28.028Z,8.55
2023-05-24T23:14:56.900Z,8.23
2023-05-24T23:17:25.340Z,7.28
2023-05-24T23:19:53.962Z,9.00
2023-05-24T23:22:22.606Z,8.90
2023-05-24T23:24:51.189Z,9.15
2023-05-24T23:27:20.027Z,11.57
2023-05-24T23:29:48.440Z,11.57
2023-05-24T23:32:16.654Z,10.85
2023-05-24T23:34:45.101Z,14.98
2023-05-24T23:37:13.771Z,15.85
2023-05-24T23:39:42.087Z,25.88
2023-05-24T23:42:10.398Z,25.77
2023-05-24T23:44:38.945Z,15.23
2023-05-24T23:47:07.494Z,12.25
2023-05-24T23:49:36.027Z,12.30
2023-05-24T23:52:04.706Z,7.43
2023-05-24T23:57:03.933Z,6.57
2023-05-24T23:59:32.263Z,6.15
